Time;durP1;ratioP1;P1;durP2;ratioP2;P2;SDS_P1;SDS_P2;PMS_P1;PMS_P2;Temp;Humidity;BMP_temperature;BMP_pressure;BME280_temperature;BME280_humidity;BME280_pressure;Samples;Min_cycle;Max_cycle;Signal;HPM_P1;HPM_P2
2022/10/14 00:01:52;;;;;;;25.25;18.30;;;13.80;99.90;;;;;;4996522;28;20061;-64
2022/10/14 00:04:38;;;;;;;20.50;17.55;;;13.80;99.90;;;;;;4997464;28;20053;-63
2022/10/14 00:07:24;;;;;;;22.50;18.15;;;13.90;99.90;;;;;;4984014;28;20064;-65
2022/10/14 00:10:10;;;;;;;25.38;17.42;;;13.90;99.90;;;;;;5011963;28;20037;-63
2022/10/14 00:12:56;;;;;;;21.65;17.80;;;13.90;99.90;;;;;;5011413;28;20034;-64
2022/10/14 00:15:42;;;;;;;22.13;17.20;;;13.90;99.90;;;;;;5012214;28;20026;-64
2022/10/14 00:18:28;;;;;;;24.48;17.83;;;13.90;99.90;;;;;;5011740;28;20030;-64
2022/10/14 00:21:14;;;;;;;25.02;18.55;;;13.90;99.90;;;;;;5011552;28;20029;-64
2022/10/14 00:24:00;;;;;;;26.45;17.77;;;13.90;99.90;;;;;;5011380;28;20025;-65
2022/10/14 00:26:46;;;;;;;26.10;18.77;;;13.90;99.90;;;;;;5010599;28;20038;-64
2022/10/14 00:29:32;;;;;;;28.20;18.73;;;13.90;99.90;;;;;;5011418;28;20030;-64
2022/10/14 00:32:18;;;;;;;23.20;18.48;;;13.90;99.90;;;;;;5011368;28;20026;-64
2022/10/14 00:35:04;;;;;;;23.08;17.88;;;13.90;99.90;;;;;;5011101;28;20116;-66
2022/10/14 00:37:50;;;;;;;22.98;18.38;;;13.90;99.90;;;;;;5010850;28;20049;-62
2022/10/14 00:40:36;;;;;;;23.83;18.98;;;13.80;99.90;;;;;;5011302;28;20062;-64
2022/10/14 00:43:24;;;;;;;24.48;17.80;;;13.70;99.90;;;;;;5011077;28;20037;-64
2022/10/14 00:46:10;;;;;;;28.88;19.52;;;13.80;99.90;;;;;;5011173;28;20026;-63
2022/10/14 00:48:59;;;;;;;25.05;18.80;;;13.70;99.90;;;;;;5011893;28;20096;-64
2022/10/14 00:52:00;;;;;;;27.17;18.23;;;13.70;99.90;;;;;;4994658;28;20022;-64
2022/10/14 00:54:58;;;;;;;23.83;18.15;;;13.70;99.90;;;;;;5011740;28;20077;-63
2022/10/14 00:57:45;;;;;;;23.20;17.30;;;13.70;99.90;;;;;;5009525;28;20041;-64
2022/10/14 01:00:31;;;;;;;27.15;18.45;;;13.70;99.90;;;;;;5010185;28;20068;-64
2022/10/14 01:03:19;;;;;;;23.83;17.92;;;13.80;99.90;;;;;;5011067;28;20042;-63
2022/10/14 01:06:06;;;;;;;23.60;17.45;;;13.90;99.90;;;;;;5010754;28;20018;-63
2022/10/14 01:09:05;;;;;;;22.98;17.80;;;13.90;99.90;;;;;;4997433;28;20050;-64
2022/10/14 01:11:54;;;;;;;21.02;17.25;;;13.80;99.90;;;;;;4995087;28;20041;-63
2022/10/14 01:15:03;;;;;;;21.30;16.90;;;13.90;99.90;;;;;;5010891;28;20574;-63
2022/10/14 01:17:56;;;;;;;19.77;16.52;;;13.90;99.90;;;;;;4990661;28;20035;-64
2022/10/14 01:21:04;;;;;;;24.02;17.17;;;14.10;99.90;;;;;;5011391;28;20030;-64
2022/10/14 01:24:28;;;;;;;23.20;17.77;;;14.10;99.90;;;;;;5010554;28;20100;-63
2022/10/14 01:27:33;;;;;;;20.02;17.30;;;14.00;99.90;;;;;;4949479;28;20043;-63
2022/10/14 01:30:21;;;;;;;25.48;18.10;;;14.00;99.90;;;;;;4991542;28;20037;-63
2022/10/14 01:33:16;;;;;;;22.75;19.05;;;14.10;99.90;;;;;;4979281;28;20035;-63
2022/10/14 01:36:16;;;;;;;28.77;18.98;;;14.10;99.90;;;;;;4995994;28;20018;-63
2022/10/14 01:39:24;;;;;;;25.33;19.50;;;14.00;99.90;;;;;;5010042;28;20398;-64
2022/10/14 01:42:19;;;;;;;22.90;19.25;;;14.00;99.90;;;;;;5010369;28;20110;-64
2022/10/14 01:45:16;;;;;;;24.17;19.20;;;14.00;99.90;;;;;;5010803;28;20038;-64
2022/10/14 01:48:04;;;;;;;25.45;18.70;;;14.00;99.90;;;;;;5010130;28;20033;-63
2022/10/14 01:50:55;;;;;;;21.17;17.92;;;14.00;99.90;;;;;;5010714;28;20379;-65
2022/10/14 01:53:52;;;;;;;28.40;19.27;;;14.00;99.90;;;;;;4995901;28;20482;-64
2022/10/14 01:56:41;;;;;;;24.75;18.55;;;13.90;99.90;;;;;;4993416;28;20038;-63
2022/10/14 01:59:29;;;;;;;22.67;18.13;;;14.00;99.90;;;;;;4998386;28;20037;-63
2022/10/14 02:02:17;;;;;;;22.52;17.77;;;14.00;99.90;;;;;;5013846;28;20057;-64
2022/10/14 02:05:12;;;;;;;26.02;18.65;;;14.00;99.90;;;;;;5013546;28;21913;-64
2022/10/14 02:08:32;;;;;;;27.30;19.30;;;13.90;99.90;;;;;;5013596;28;20490;-61
2022/10/14 02:11:20;;;;;;;23.85;19.33;;;14.00;99.90;;;;;;4980120;28;20034;-62
2022/10/14 02:14:26;;;;;;;26.67;19.55;;;14.00;99.90;;;;;;4994345;28;20022;-62
2022/10/14 02:17:46;;;;;;;26.73;18.40;;;14.00;99.90;;;;;;5013357;28;20625;-63
2022/10/14 02:20:52;;;;;;;22.52;17.95;;;14.00;99.90;;;;;;4999289;28;20088;-64
2022/10/14 02:23:46;;;;;;;21.80;18.40;;;14.00;99.90;;;;;;5014110;28;20045;-63
2022/10/14 02:26:35;;;;;;;24.42;18.92;;;14.10;99.90;;;;;;5000183;28;20141;-65
2022/10/14 02:29:22;;;;;;;27.15;19.85;;;14.10;99.90;;;;;;5013997;28;20033;-64
2022/10/14 02:32:11;;;;;;;25.52;18.85;;;14.10;99.90;;;;;;4996774;28;20053;-64
2022/10/14 02:34:59;;;;;;;25.40;18.20;;;14.10;99.90;;;;;;5013618;28;20030;-62
2022/10/14 02:37:47;;;;;;;26.73;19.45;;;14.20;99.90;;;;;;5013558;28;20561;-63
2022/10/14 02:40:41;;;;;;;22.98;18.30;;;14.20;99.90;;;;;;5013650;28;20105;-63
2022/10/14 02:43:27;;;;;;;24.00;18.65;;;14.20;99.90;;;;;;5012681;28;20444;-64
2022/10/14 02:46:13;;;;;;;25.00;20.05;;;14.20;99.90;;;;;;5013760;28;20057;-63
2022/10/14 02:48:59;;;;;;;23.35;18.98;;;14.30;99.90;;;;;;4996782;28;20026;-63
2022/10/14 02:51:45;;;;;;;24.67;18.40;;;14.30;99.90;;;;;;5012411;28;20037;-63
2022/10/14 02:54:31;;;;;;;26.80;19.85;;;14.20;99.90;;;;;;5013403;28;20026;-63
2022/10/14 02:57:17;;;;;;;21.63;18.60;;;14.30;99.90;;;;;;4998571;28;20034;-65
2022/10/14 03:00:05;;;;;;;24.48;19.95;;;14.30;99.90;;;;;;5013086;28;20402;-62
2022/10/14 03:02:50;;;;;;;26.38;19.88;;;14.20;99.90;;;;;;4998732;28;20117;-62
2022/10/14 03:05:36;;;;;;;26.08;18.60;;;14.30;99.90;;;;;;5012235;28;20121;-63
2022/10/14 03:08:22;;;;;;;23.30;17.50;;;14.20;99.90;;;;;;5012325;28;20494;-63
2022/10/14 03:11:08;;;;;;;24.67;18.60;;;14.20;99.90;;;;;;5012666;28;20034;-61
2022/10/14 03:13:54;;;;;;;24.80;17.90;;;14.20;99.90;;;;;;5012498;28;20041;-62
2022/10/14 03:16:40;;;;;;;23.60;17.75;;;14.20;99.90;;;;;;4997885;28;20064;-63
2022/10/14 03:19:26;;;;;;;24.23;17.92;;;14.20;99.90;;;;;;4994066;28;20678;-64
2022/10/14 03:22:12;;;;;;;21.83;17.85;;;14.20;99.90;;;;;;4995068;28;20038;-64
2022/10/14 03:24:58;;;;;;;24.95;18.90;;;14.10;99.90;;;;;;5012847;28;20022;-64
2022/10/14 03:27:44;;;;;;;23.98;18.67;;;14.20;99.90;;;;;;5012636;28;20368;-64
2022/10/14 03:30:30;;;;;;;26.45;19.98;;;14.20;99.90;;;;;;5012441;28;20018;-64
2022/10/14 03:33:16;;;;;;;27.10;19.98;;;14.10;99.90;;;;;;5012624;28;20077;-64
2022/10/14 03:36:02;;;;;;;28.90;20.38;;;14.10;99.90;;;;;;5012707;28;20061;-63
2022/10/14 03:38:48;;;;;;;28.42;20.10;;;14.00;99.90;;;;;;5011832;28;20112;-64
2022/10/14 03:41:33;;;;;;;26.83;20.85;;;14.00;99.90;;;;;;5011495;28;20030;-64
2022/10/14 03:44:19;;;;;;;29.70;21.17;;;13.90;99.90;;;;;;4993024;28;20085;-63
2022/10/14 03:47:05;;;;;;;27.42;21.05;;;13.90;99.90;;;;;;4996746;28;20116;-63
2022/10/14 03:49:51;;;;;;;26.65;19.98;;;13.80;99.90;;;;;;5011684;28;20049;-63
2022/10/14 03:52:39;;;;;;;25.58;19.95;;;13.80;99.90;;;;;;5011443;28;20034;-63
2022/10/14 03:55:25;;;;;;;29.67;20.40;;;13.70;99.90;;;;;;5011628;28;20030;-63
2022/10/14 03:58:11;;;;;;;28.20;21.33;;;13.70;99.90;;;;;;5011253;28;20498;-63
2022/10/14 04:00:57;;;;;;;28.30;21.02;;;13.60;99.90;;;;;;4997348;28;20037;-63
2022/10/14 04:03:45;;;;;;;30.15;20.67;;;13.60;99.90;;;;;;5010833;28;20464;-64
2022/10/14 04:06:31;;;;;;;26.48;19.98;;;13.70;99.90;;;;;;5011113;28;20113;-63
2022/10/14 04:09:17;;;;;;;29.27;21.98;;;13.60;99.90;;;;;;5011274;28;20102;-61
2022/10/14 04:12:03;;;;;;;27.48;20.92;;;13.70;99.90;;;;;;5010648;28;20026;-63
2022/10/14 04:14:49;;;;;;;24.42;20.10;;;13.70;99.90;;;;;;5011522;28;20018;-64
2022/10/14 04:17:35;;;;;;;30.05;21.38;;;13.70;99.90;;;;;;5010348;28;20053;-62
2022/10/14 04:20:21;;;;;;;25.95;20.40;;;13.80;99.90;;;;;;5009355;28;20026;-63
2022/10/14 04:23:07;;;;;;;27.65;20.50;;;13.80;99.90;;;;;;5010771;28;20029;-63
2022/10/14 04:25:53;;;;;;;29.13;19.92;;;13.80;99.90;;;;;;4996610;28;20022;-63
2022/10/14 04:28:38;;;;;;;37.83;22.77;;;13.80;99.90;;;;;;4996611;28;20025;-63
2022/10/14 04:31:25;;;;;;;25.50;19.83;;;13.80;99.90;;;;;;5010690;28;20403;-64
2022/10/14 04:34:11;;;;;;;32.00;20.35;;;13.80;99.90;;;;;;4997102;28;20084;-64
2022/10/14 04:36:57;;;;;;;22.98;18.42;;;13.80;99.90;;;;;;5010629;28;20022;-63
2022/10/14 04:39:43;;;;;;;24.08;19.73;;;13.80;99.90;;;;;;4996539;28;20030;-62
2022/10/14 04:42:29;;;;;;;30.73;19.02;;;13.90;99.90;;;;;;5010662;28;20117;-63
2022/10/14 04:45:15;;;;;;;24.50;19.38;;;13.80;99.90;;;;;;5011425;28;20026;-63
2022/10/14 04:48:01;;;;;;;25.58;18.50;;;13.80;99.90;;;;;;4997154;28;20510;-63
2022/10/14 04:50:51;;;;;;;25.83;19.52;;;13.90;99.90;;;;;;5011557;28;20509;-62
2022/10/14 04:53:37;;;;;;;29.58;19.58;;;13.80;99.90;;;;;;4991984;28;20022;-63
2022/10/14 04:56:23;;;;;;;24.98;20.15;;;13.70;99.90;;;;;;4991826;28;20180;-64
2022/10/14 04:59:10;;;;;;;26.95;20.02;;;13.70;99.90;;;;;;5012186;28;20069;-65
2022/10/14 05:01:56;;;;;;;27.42;21.25;;;13.60;99.90;;;;;;4998567;28;20030;-63
2022/10/14 05:04:43;;;;;;;23.42;18.88;;;13.60;99.90;;;;;;4997493;28;20037;-65
2022/10/14 05:07:31;;;;;;;27.52;20.35;;;13.60;99.90;;;;;;4998322;28;20046;-63
2022/10/14 05:10:17;;;;;;;32.08;20.17;;;13.60;99.90;;;;;;4997898;28;20036;-64
2022/10/14 05:13:04;;;;;;;60.50;24.75;;;13.60;99.90;;;;;;4982705;28;20132;-63
2022/10/14 05:15:51;;;;;;;36.60;22.08;;;13.60;99.90;;;;;;5011365;28;20086;-64
2022/10/14 05:18:37;;;;;;;27.80;19.80;;;13.70;99.90;;;;;;4996210;28;20105;-62
2022/10/14 05:21:23;;;;;;;32.88;20.92;;;13.60;99.90;;;;;;4969962;28;20077;-64
2022/10/14 05:24:09;;;;;;;27.02;19.27;;;13.60;99.90;;;;;;4998142;28;20402;-63
2022/10/14 05:26:55;;;;;;;26.35;20.30;;;13.60;99.90;;;;;;4982538;28;20045;-63
2022/10/14 05:29:41;;;;;;;40.45;20.88;;;13.60;99.90;;;;;;4997681;28;20378;-63
2022/10/14 05:32:27;;;;;;;25.27;20.05;;;13.60;99.90;;;;;;5014103;28;20085;-63
2022/10/14 05:35:13;;;;;;;24.88;17.70;;;13.60;99.90;;;;;;5030043;28;20037;-63
2022/10/14 05:37:59;;;;;;;38.20;26.48;;;13.60;99.90;;;;;;5014570;28;20039;-63
2022/10/14 05:40:56;;;;;;;48.72;31.25;;;13.60;99.90;;;;;;5022517;28;20033;-63
2022/10/14 05:43:42;;;;;;;38.70;22.83;;;13.60;99.90;;;;;;5010134;28;20080;-63
2022/10/14 05:46:28;;;;;;;67.78;50.50;;;13.70;99.90;;;;;;4987768;28;20486;-63
2022/10/14 05:49:14;;;;;;;40.97;29.83;;;13.60;99.90;;;;;;5014580;28;20105;-64
2022/10/14 05:52:00;;;;;;;29.55;21.55;;;13.60;99.90;;;;;;5014896;28;20092;-64
2022/10/14 05:54:46;;;;;;;30.52;21.48;;;13.60;99.90;;;;;;5014564;28;20033;-64
2022/10/14 05:57:33;;;;;;;42.20;27.73;;;13.50;99.90;;;;;;4979779;28;20506;-63
2022/10/14 06:00:18;;;;;;;41.88;27.55;;;13.50;99.90;;;;;;4996913;28;20041;-63
2022/10/14 06:03:04;;;;;;;33.10;23.27;;;13.50;99.90;;;;;;5013023;28;20032;-65
2022/10/14 06:05:50;;;;;;;28.05;21.65;;;13.50;99.90;;;;;;5013653;28;20088;-64
2022/10/14 06:08:36;;;;;;;31.33;21.42;;;13.50;99.90;;;;;;5014241;28;20037;-63
2022/10/14 06:11:22;;;;;;;27.67;20.50;;;13.60;99.90;;;;;;5014299;28;20026;-63
2022/10/14 06:14:08;;;;;;;25.80;21.13;;;13.60;99.90;;;;;;5013898;28;20375;-63
2022/10/14 06:16:54;;;;;;;44.40;25.23;;;13.60;99.90;;;;;;4999161;28;20029;-64
2022/10/14 06:19:40;;;;;;;27.17;22.52;;;13.60;99.90;;;;;;4999262;28;20040;-64
2022/10/14 06:22:27;;;;;;;32.30;22.35;;;13.60;99.90;;;;;;5013630;28;20045;-63
2022/10/14 06:25:13;;;;;;;36.22;22.02;;;13.60;99.90;;;;;;5013852;28;20084;-65
2022/10/14 06:28:03;;;;;;;33.15;21.92;;;13.70;99.90;;;;;;5013657;28;20027;-64
2022/10/14 06:30:53;;;;;;;28.40;21.98;;;13.60;99.90;;;;;;5013279;28;20517;-63
2022/10/14 06:33:40;;;;;;;31.65;23.20;;;13.60;99.90;;;;;;5000368;28;20040;-64
2022/10/14 06:36:28;;;;;;;24.90;20.95;;;13.60;99.90;;;;;;4994904;28;20035;-64
2022/10/14 06:39:14;;;;;;;25.38;19.83;;;13.70;99.90;;;;;;4982913;28;20037;-64
2022/10/14 06:42:01;;;;;;;32.05;21.02;;;13.70;99.90;;;;;;5012650;28;20650;-63
2022/10/14 06:44:47;;;;;;;24.65;20.13;;;13.70;99.90;;;;;;4998389;28;20030;-65
2022/10/14 06:47:33;;;;;;;37.08;22.13;;;13.80;99.90;;;;;;4999075;28;20065;-64
2022/10/14 06:50:19;;;;;;;29.13;20.83;;;13.80;99.90;;;;;;5013339;28;20054;-63
2022/10/14 06:53:05;;;;;;;31.48;20.23;;;13.80;99.90;;;;;;5013138;28;20113;-63
2022/10/14 06:56:02;;;;;;;22.60;18.45;;;13.80;99.90;;;;;;5013179;28;20034;-63
2022/10/14 06:58:51;;;;;;;24.08;18.65;;;13.90;99.90;;;;;;4999370;28;20033;-65
2022/10/14 07:01:38;;;;;;;24.73;19.15;;;13.90;99.90;;;;;;5012334;28;20057;-64
2022/10/14 07:04:24;;;;;;;28.10;19.45;;;13.90;99.90;;;;;;4999104;28;20404;-64
2022/10/14 07:07:09;;;;;;;25.55;18.70;;;13.80;99.90;;;;;;4998451;28;20449;-63
2022/10/14 07:09:57;;;;;;;26.60;19.08;;;13.90;99.90;;;;;;5012437;28;20502;-63
2022/10/14 07:12:43;;;;;;;24.33;19.00;;;13.90;99.90;;;;;;4997744;28;20096;-64
2022/10/14 07:15:29;;;;;;;29.13;20.38;;;14.00;99.90;;;;;;4998560;28;20026;-64
2022/10/14 07:18:15;;;;;;;28.92;19.73;;;14.10;99.90;;;;;;4997154;28;20092;-64
2022/10/14 07:21:05;;;;;;;35.70;20.35;;;14.20;99.90;;;;;;4993114;28;20507;-64
2022/10/14 07:23:51;;;;;;;33.13;19.70;;;14.20;99.90;;;;;;4997496;28;20026;-64
2022/10/14 07:26:37;;;;;;;32.20;19.92;;;14.30;99.90;;;;;;4997266;28;20034;-62
2022/10/14 07:29:23;;;;;;;28.98;20.08;;;14.40;99.90;;;;;;5012133;28;20080;-64
2022/10/14 07:32:09;;;;;;;24.15;18.05;;;14.30;99.90;;;;;;5012215;28;20030;-65
2022/10/14 07:34:55;;;;;;;24.42;18.40;;;14.30;99.90;;;;;;4993370;28;20483;-64
2022/10/14 07:37:41;;;;;;;27.95;18.80;;;14.30;99.90;;;;;;4995977;28;20402;-64
2022/10/14 07:40:27;;;;;;;25.67;19.48;;;14.40;99.90;;;;;;5011351;28;20524;-66
2022/10/14 07:43:13;;;;;;;25.50;18.58;;;14.40;99.90;;;;;;5010163;28;20046;-62
2022/10/14 07:46:06;;;;;;;28.10;20.23;;;14.40;99.90;;;;;;4996891;28;20040;-63
2022/10/14 07:48:52;;;;;;;30.42;18.02;;;14.50;99.90;;;;;;4996903;28;20505;-64
2022/10/14 07:51:39;;;;;;;29.50;18.13;;;14.50;99.90;;;;;;5011233;28;20513;-64
2022/10/14 07:54:28;;;;;;;26.80;18.88;;;14.60;99.90;;;;;;4993002;28;20050;-63
2022/10/14 07:57:15;;;;;;;24.80;18.40;;;14.70;99.90;;;;;;4994853;28;20042;-65
2022/10/14 08:00:02;;;;;;;26.38;17.77;;;14.60;99.90;;;;;;5011327;28;20030;-63
2022/10/14 08:02:48;;;;;;;21.20;16.80;;;14.60;99.90;;;;;;5012262;28;20121;-64
2022/10/14 08:05:34;;;;;;;25.98;17.45;;;14.70;99.90;;;;;;5011642;28;20026;-66
2022/10/14 08:08:22;;;;;;;26.05;18.02;;;14.80;99.90;;;;;;5010982;28;20034;-63
2022/10/14 08:11:17;;;;;;;24.08;18.13;;;14.80;99.90;;;;;;4992920;28;20026;-63
2022/10/14 08:14:03;;;;;;;18.80;15.65;;;14.80;99.90;;;;;;4991746;28;20026;-63
2022/10/14 08:16:52;;;;;;;22.38;16.48;;;14.90;99.90;;;;;;4980027;28;20038;-64
2022/10/14 08:19:38;;;;;;;22.10;16.77;;;14.80;99.90;;;;;;4998498;28;20405;-63
2022/10/14 08:22:24;;;;;;;29.95;16.30;;;15.00;99.90;;;;;;4997590;28;20454;-64
2022/10/14 08:25:10;;;;;;;23.40;17.13;;;15.10;99.90;;;;;;4996121;28;20034;-63
2022/10/14 08:27:57;;;;;;;18.75;14.68;;;15.20;99.90;;;;;;5008771;28;20022;-63
2022/10/14 08:30:44;;;;;;;20.08;15.25;;;15.30;99.90;;;;;;5011636;28;20125;-64
2022/10/14 08:33:30;;;;;;;21.52;15.15;;;15.30;99.90;;;;;;4996335;28;20026;-63
2022/10/14 08:36:16;;;;;;;19.50;14.23;;;15.30;99.90;;;;;;4983602;28;20528;-65
2022/10/14 08:39:04;;;;;;;18.95;13.77;;;15.30;99.90;;;;;;5011143;28;20030;-65
2022/10/14 08:41:50;;;;;;;17.13;13.30;;;15.30;99.90;;;;;;5011414;28;20037;-66
2022/10/14 08:44:52;;;;;;;22.58;14.13;;;15.30;99.90;;;;;;5010702;28;20029;-66
2022/10/14 08:47:41;;;;;;;20.35;15.20;;;15.40;99.90;;;;;;4996699;28;20418;-64
2022/10/14 08:50:41;;;;;;;16.73;14.23;;;15.30;99.90;;;;;;4988970;28;20073;-63
2022/10/14 08:53:42;;;;;;;19.13;14.80;;;15.30;99.90;;;;;;5010791;28;20018;-66
2022/10/14 08:56:28;;;;;;;16.70;12.80;;;15.30;99.90;;;;;;5011489;28;20794;-65
2022/10/14 08:59:18;;;;;;;24.75;14.27;;;15.50;99.90;;;;;;4979860;28;20038;-65
2022/10/14 09:02:16;;;;;;;16.77;12.77;;;15.50;99.90;;;;;;5010828;28;20125;-65
2022/10/14 09:05:03;;;;;;;15.50;12.45;;;15.50;99.90;;;;;;5014568;28;20084;-65
2022/10/14 09:07:52;;;;;;;15.65;13.68;;;15.70;99.90;;;;;;5014759;28;20030;-64
2022/10/14 09:10:41;;;;;;;19.30;13.80;;;15.70;99.90;;;;;;5001306;28;20108;-65
2022/10/14 09:13:35;;;;;;;15.25;12.15;;;15.80;99.90;;;;;;4995721;28;20046;-65
2022/10/14 09:16:28;;;;;;;14.82;11.52;;;15.80;99.90;;;;;;4987265;28;20113;-64
2022/10/14 09:19:30;;;;;;;15.27;11.13;;;16.20;99.90;;;;;;4997183;28;20053;-64
2022/10/14 09:22:16;;;;;;;11.93;9.52;;;16.20;99.90;;;;;;5009856;28;20153;-64
2022/10/14 09:25:02;;;;;;;13.50;9.23;;;16.00;99.90;;;;;;4999732;28;20379;-64
2022/10/14 09:27:48;;;;;;;11.60;8.57;;;15.90;99.90;;;;;;4989939;28;20025;-64
2022/10/14 09:30:37;;;;;;;12.88;8.45;;;15.80;99.90;;;;;;4998144;28;20084;-65
2022/10/14 09:33:25;;;;;;;15.90;10.07;;;15.80;99.90;;;;;;4999513;28;20065;-66
2022/10/14 09:36:21;;;;;;;13.70;8.43;;;16.10;99.90;;;;;;4999684;28;20057;-63
2022/10/14 09:39:10;;;;;;;13.45;9.23;;;16.30;99.90;;;;;;5000440;28;20041;-64
2022/10/14 09:41:58;;;;;;;10.07;8.65;;;16.20;99.90;;;;;;5013257;28;20738;-65
2022/10/14 09:44:44;;;;;;;10.50;8.05;;;16.30;99.90;;;;;;5014131;28;20038;-63
2022/10/14 09:47:31;;;;;;;10.35;8.88;;;16.30;99.90;;;;;;5013260;28;20029;-65
2022/10/14 09:50:23;;;;;;;14.15;8.20;;;16.20;99.90;;;;;;5013939;28;20026;-63
2022/10/14 09:53:32;;;;;;;9.40;8.43;;;16.30;99.90;;;;;;5014185;28;20413;-64
2022/10/14 09:56:33;;;;;;;8.60;6.90;;;16.50;99.90;;;;;;4999195;28;20061;-63
2022/10/14 09:59:23;;;;;;;8.30;6.55;;;16.80;99.90;;;;;;5014704;28;20030;-64
2022/10/14 10:02:31;;;;;;;9.23;6.80;;;16.90;99.90;;;;;;5013014;28;20032;-65
2022/10/14 10:05:29;;;;;;;12.20;6.70;;;17.10;99.40;;;;;;5013648;28;20406;-65
2022/10/14 10:08:17;;;;;;;7.05;5.18;;;17.00;99.60;;;;;;5013846;28;20030;-64
2022/10/14 10:11:12;;;;;;;6.97;5.05;;;16.80;99.50;;;;;;5013913;28;20041;-63
2022/10/14 10:14:13;;;;;;;7.70;5.35;;;16.70;99.00;;;;;;4999379;28;20034;-64
2022/10/14 10:17:09;;;;;;;8.23;5.80;;;16.80;99.00;;;;;;4996107;28;20034;-63
2022/10/14 10:20:32;;;;;;;7.05;5.32;;;16.80;99.20;;;;;;5000634;28;20022;-65
2022/10/14 10:23:25;;;;;;;9.07;5.72;;;16.80;99.20;;;;;;5013235;28;20529;-64
2022/10/14 10:26:21;;;;;;;8.27;6.72;;;16.90;99.20;;;;;;4994052;28;20049;-64
2022/10/14 10:29:29;;;;;;;7.88;6.22;;;16.90;99.00;;;;;;4983368;28;20078;-64
2022/10/14 10:32:29;;;;;;;5.10;4.13;;;17.00;99.20;;;;;;5012782;28;20431;-64
2022/10/14 10:35:51;;;;;;;7.05;4.00;;;17.00;98.20;;;;;;5013573;28;20036;-65
2022/10/14 10:39:04;;;;;;;5.75;4.20;;;16.90;98.50;;;;;;5013662;28;20025;-62
2022/10/14 10:42:21;;;;;;;4.35;3.88;;;16.90;98.30;;;;;;5013725;28;20518;-63
2022/10/14 10:45:25;;;;;;;4.70;3.70;;;16.90;98.40;;;;;;4991661;28;20102;-66
2022/10/14 10:48:38;;;;;;;6.90;4.22;;;17.10;98.30;;;;;;5012472;28;20022;-65
2022/10/14 10:51:26;;;;;;;4.45;3.90;;;17.10;97.70;;;;;;5014385;28;20025;-64
2022/10/14 10:54:18;;;;;;;5.13;3.58;;;17.10;97.90;;;;;;5010219;28;20032;-61
2022/10/14 10:57:23;;;;;;;7.20;4.25;;;17.20;97.90;;;;;;5024445;28;20270;-64
2022/10/14 11:00:13;;;;;;;;;;;17.10;97.80;;;;;;5016853;28;20033;-63
2022/10/14 11:03:05;;;;;;;5.60;4.15;;;17.10;97.90;;;;;;4997233;28;19909;-64
2022/10/14 11:13:14;;;;;;;5.88;3.60;;;17.20;97.30;;;;;;5011648;28;20030;-62
2022/10/14 11:16:38;;;;;;;5.88;3.90;;;17.30;97.40;;;;;;5011297;28;20473;-65
2022/10/14 11:19:37;;;;;;;5.57;3.70;;;17.40;97.20;;;;;;4993172;28;20470;-63
2022/10/14 11:22:45;;;;;;;4.93;4.13;;;17.30;97.40;;;;;;5006733;28;20074;-64
2022/10/14 11:25:54;;;;;;;7.38;3.92;;;17.30;97.30;;;;;;5012156;28;20045;-65
2022/10/14 11:29:17;;;;;;;6.18;3.50;;;17.30;97.20;;;;;;4997106;28;20037;-61
2022/10/14 11:32:12;;;;;;;3.75;3.20;;;17.40;97.10;;;;;;4997092;28;20402;-63
2022/10/14 11:35:20;;;;;;;4.63;3.42;;;17.30;97.20;;;;;;5025804;28;20530;-62
2022/10/14 11:38:20;;;;;;;4.18;3.40;;;17.50;97.10;;;;;;5009527;28;20026;-64
2022/10/14 11:41:18;;;;;;;4.15;3.13;;;17.40;97.00;;;;;;5008673;28;20034;-62
2022/10/14 11:44:31;;;;;;;4.60;3.58;;;17.50;97.10;;;;;;5010366;28;20401;-64
2022/10/14 11:47:26;;;;;;;4.53;3.53;;;17.60;96.60;;;;;;5010518;28;20336;-61
2022/10/14 11:50:27;;;;;;;4.50;3.40;;;17.70;96.70;;;;;;4992266;28;20105;-64
2022/10/14 11:53:38;;;;;;;4.30;3.38;;;17.60;96.80;;;;;;4997076;28;20034;-64
2022/10/14 11:56:33;;;;;;;4.00;3.33;;;17.60;96.90;;;;;;5011474;28;20021;-64
2022/10/14 11:59:29;;;;;;;5.10;3.40;;;17.70;96.80;;;;;;5010585;28;20030;-61
2022/10/14 12:02:35;;;;;;;4.35;3.50;;;17.70;96.70;;;;;;5010644;28;20037;-63
2022/10/14 12:05:21;;;;;;;;;;;17.70;97.00;;;;;;5011239;28;20026;-64
2022/10/14 12:08:31;;;;;;;4.18;3.60;;;17.80;97.00;;;;;;5010346;28;19992;-63
2022/10/14 12:11:45;;;;;;;6.97;4.47;;;17.90;96.80;;;;;;5010285;28;20037;-64
2022/10/14 12:14:38;;;;;;;4.47;3.47;;;17.90;96.90;;;;;;4978108;28;20066;-62
2022/10/14 12:17:41;;;;;;;3.63;3.28;;;17.90;97.00;;;;;;5007994;28;20026;-63
2022/10/14 12:20:33;;;;;;;3.90;3.50;;;18.10;96.60;;;;;;5010506;28;20701;-63
2022/10/14 12:23:56;;;;;;;5.70;4.13;;;18.40;96.30;;;;;;5002068;28;20565;-64
2022/10/14 12:26:59;;;;;;;5.15;3.28;;;18.60;96.10;;;;;;4994817;28;20037;-62
2022/10/14 12:29:48;;;;;;;3.83;3.05;;;18.70;95.80;;;;;;4996719;28;20129;-65
2022/10/14 12:32:54;;;;;;;4.00;3.65;;;18.60;96.10;;;;;;5011325;28;20057;-63
2022/10/14 12:35:59;;;;;;;4.40;3.40;;;18.50;95.90;;;;;;4997329;28;20022;-65
2022/10/14 12:39:17;;;;;;;5.60;3.30;;;18.70;95.70;;;;;;5015862;28;20028;-62
2022/10/14 12:42:08;;;;;;;6.03;3.53;;;19.20;95.30;;;;;;4995036;28;20425;-63
2022/10/14 12:45:00;;;;;;;3.97;3.30;;;19.50;94.20;;;;;;5010641;28;20041;-64
2022/10/14 12:47:46;;;;;;;3.22;2.92;;;19.50;94.30;;;;;;4996252;28;20045;-61
2022/10/14 12:51:13;;;;;;;5.68;3.03;;;19.40;94.30;;;;;;4996335;28;20120;-65
2022/10/14 12:54:13;;;;;;;5.28;3.00;;;19.60;94.00;;;;;;4999530;28;20042;-64
2022/10/14 12:57:23;;;;;;;2.83;2.50;;;20.00;93.70;;;;;;4989298;28;20034;-61
2022/10/14 13:00:23;;;;;;;3.72;2.88;;;20.00;93.20;;;;;;4991441;28;20027;-63
2022/10/14 13:03:19;;;;;;;3.55;3.08;;;19.50;93.50;;;;;;4991366;28;20686;-62
2022/10/14 13:06:35;;;;;;;3.67;2.92;;;19.20;94.00;;;;;;5010498;28;20609;-63
2022/10/14 13:09:29;;;;;;;;;;;19.30;94.00;;;;;;5011618;28;20026;-63
2022/10/14 13:12:18;;;;;;;5.40;2.72;;;19.60;93.80;;;;;;5010840;28;20300;-63
2022/10/14 13:15:27;;;;;;;9.73;2.80;;;19.70;93.50;;;;;;5010196;28;20018;-62
2022/10/14 13:18:34;;;;;;;4.30;2.58;;;19.80;93.30;;;;;;5005747;28;20053;-66
2022/10/14 13:21:35;;;;;;;4.07;2.70;;;19.90;93.10;;;;;;4993939;28;20030;-65
2022/10/14 13:24:21;;;;;;;3.88;2.63;;;19.90;93.00;;;;;;5002585;28;20053;-65
2022/10/14 13:27:30;;;;;;;4.47;2.53;;;20.00;92.80;;;;;;4995282;28;20018;-64
2022/10/14 13:30:35;;;;;;;3.38;2.40;;;19.70;93.00;;;;;;5003991;28;20026;-63
2022/10/14 13:33:30;;;;;;;;;;;19.20;93.80;;;;;;5004657;28;20027;-65
2022/10/14 13:36:34;;;;;;;3.43;2.70;;;19.00;94.30;;;;;;5002693;28;19916;-67
2022/10/14 13:39:20;;;;;;;3.97;2.60;;;18.90;94.20;;;;;;5006300;28;20109;-64
2022/10/14 13:42:10;;;;;;;5.20;2.60;;;18.70;94.50;;;;;;5007340;28;20113;-64
2022/10/14 13:45:05;;;;;;;3.22;2.80;;;18.50;94.90;;;;;;5002648;28;20525;-63
2022/10/14 13:47:52;;;;;;;3.55;2.63;;;18.60;94.80;;;;;;4992583;28;20034;-63
2022/10/14 13:50:38;;;;;;;3.08;2.50;;;18.60;94.90;;;;;;5005760;28;20486;-63
2022/10/14 13:53:24;;;;;;;3.85;2.67;;;18.60;95.00;;;;;;5011206;28;20093;-65
2022/10/14 13:56:24;;;;;;;5.20;2.50;;;18.70;95.00;;;;;;4966090;28;20038;-64
2022/10/14 13:59:23;;;;;;;2.92;2.58;;;18.60;94.90;;;;;;4993510;28;20035;-65
2022/10/14 14:02:15;;;;;;;2.72;2.50;;;18.40;95.30;;;;;;5014251;28;20025;-63
2022/10/14 14:05:01;;;;;;;3.22;2.75;;;18.40;95.40;;;;;;4987199;28;20113;-63
2022/10/14 14:07:50;;;;;;;2.80;2.50;;;18.50;95.30;;;;;;4986326;28;20049;-63
2022/10/14 14:10:38;;;;;;;3.50;2.67;;;18.50;95.30;;;;;;5014210;28;20096;-63
2022/10/14 14:13:25;;;;;;;2.95;2.65;;;18.50;95.10;;;;;;5013280;28;20029;-62
2022/10/14 14:16:20;;;;;;;3.17;2.65;;;18.40;95.40;;;;;;5013586;28;20399;-64
2022/10/14 14:19:18;;;;;;;4.35;2.80;;;18.70;95.30;;;;;;5012611;28;20516;-64
2022/10/14 14:22:25;;;;;;;3.45;3.00;;;18.90;94.80;;;;;;5011459;28;20049;-65
2022/10/14 14:25:28;;;;;;;2.92;2.53;;;18.90;94.90;;;;;;4996116;28;20415;-63
2022/10/14 14:28:14;;;;;;;3.17;2.88;;;18.70;95.00;;;;;;5012025;28;20030;-63
2022/10/14 14:31:01;;;;;;;4.35;3.33;;;18.60;95.30;;;;;;4969266;28;20038;-64
2022/10/14 14:33:47;;;;;;;3.10;2.80;;;18.50;95.50;;;;;;4983187;28;20034;-64
2022/10/14 14:36:33;;;;;;;3.55;2.53;;;18.40;95.50;;;;;;4996594;28;20521;-64
2022/10/14 14:39:21;;;;;;;3.22;2.92;;;18.50;95.60;;;;;;4986677;28;20048;-65
2022/10/14 14:42:08;;;;;;;4.80;2.80;;;18.40;95.80;;;;;;5011709;28;20034;-64
2022/10/14 14:44:58;;;;;;;3.47;2.60;;;18.50;95.50;;;;;;4998225;28;20089;-64
2022/10/14 14:47:46;;;;;;;4.45;2.75;;;18.50;95.50;;;;;;5011145;28;20042;-64
2022/10/14 14:50:38;;;;;;;4.43;3.28;;;18.50;95.60;;;;;;4997748;28;20048;-62